Time;durP1;ratioP1;P1;durP2;ratioP2;P2;SDS_P1;SDS_P2;PMS_P1;PMS_P2;Temp;Humidity;BMP_temperature;BMP_pressure;BME280_temperature;BME280_humidity;BME280_pressure;Samples;Min_cycle;Max_cycle;Signal;HPM_P1;HPM_P2
2022/10/16 00:00:19;;;;;;;19.20;10.73;;;;;;;;;;5032560;28;20029;-74
2022/10/16 00:02:45;;;;;;;15.02;10.05;;;;;;;;;;5032395;28;20506;-77
2022/10/16 00:05:11;;;;;;;19.15;12.18;;;;;;;;;;5032293;28;20026;-76
2022/10/16 00:07:37;;;;;;;17.05;10.80;;;;;;;;;;5032078;28;20061;-76
2022/10/16 00:10:03;;;;;;;16.23;10.57;;;;;;;;;;5032648;28;20029;-75
2022/10/16 00:12:29;;;;;;;22.15;10.45;;;;;;;;;;5015075;28;20022;-76
2022/10/16 00:14:55;;;;;;;20.55;10.65;;;;;;;;;;5034534;28;20092;-76
2022/10/16 00:17:21;;;;;;;16.42;10.55;;;;;;;;;;5036356;28;20026;-76
2022/10/16 00:19:46;;;;;;;15.95;9.70;;;;;;;;;;5036592;28;20029;-77
2022/10/16 00:22:12;;;;;;;16.85;9.60;;;;;;;;;;5036286;28;20042;-77
2022/10/16 00:24:38;;;;;;;16.02;8.90;;;;;;;;;;5018987;28;20382;-76
2022/10/16 00:27:04;;;;;;;13.15;8.07;;;;;;;;;;5036553;28;20036;-77
2022/10/16 00:29:30;;;;;;;14.88;7.95;;;;;;;;;;5036449;28;20018;-74
2022/10/16 00:31:56;;;;;;;13.60;7.85;;;;;;;;;;5036443;28;20394;-74
2022/10/16 00:34:22;;;;;;;18.38;7.13;;;;;;;;;;5042391;28;20033;-76
2022/10/16 00:36:48;;;;;;;14.20;6.88;;;;;;;;;;5052807;28;20026;-75
2022/10/16 00:39:14;;;;;;;17.05;7.47;;;;;;;;;;5042422;28;20025;-76
2022/10/16 00:41:40;;;;;;;13.40;6.20;;;;;;;;;;5035808;28;20021;-75
2022/10/16 00:46:56;;;;;;;13.23;5.55;;;;;;;;;;5000562;28;20046;-76
2022/10/16 00:49:22;;;;;;;13.35;5.63;;;;;;;;;;4995994;28;20031;-76
2022/10/16 00:51:50;;;;;;;14.95;4.80;;;;;;;;;;4997161;28;20018;-75
2022/10/16 00:54:27;;;;;;;12.50;4.85;;;;;;;;;;4997378;28;20038;-76
2022/10/16 00:56:54;;;;;;;10.35;4.53;;;;;;;;;;4978304;28;20050;-76
2022/10/16 00:59:24;;;;;;;12.10;4.43;;;;;;;;;;4978501;28;20487;-75
2022/10/16 01:01:50;;;;;;;9.15;4.28;;;;;;;;;;4986810;28;20134;-75
2022/10/16 01:04:16;;;;;;;11.40;5.10;;;;;;;;;;4989717;28;20472;-75
2022/10/16 01:06:46;;;;;;;10.25;4.72;;;;;;;;;;4979133;28;20038;-76
2022/10/16 01:09:15;;;;;;;16.38;4.60;;;;;;;;;;4976708;28;20026;-75
2022/10/16 01:11:50;;;;;;;10.88;4.15;;;;;;;;;;4977681;28;20030;-75
2022/10/16 01:14:27;;;;;;;13.73;4.60;;;;;;;;;;4979886;28;20023;-75
2022/10/16 01:16:57;;;;;;;10.65;3.88;;;;;;;;;;4980306;28;20084;-76
2022/10/16 01:19:41;;;;;;;12.65;3.83;;;;;;;;;;4978097;28;20046;-75
2022/10/16 01:22:10;;;;;;;12.55;4.50;;;;;;;;;;4976909;28;20081;-75
2022/10/16 01:24:39;;;;;;;15.35;3.88;;;;;;;;;;4976589;28;20030;-76
2022/10/16 01:27:21;;;;;;;10.18;3.90;;;;;;;;;;4976630;28;20109;-75
2022/10/16 01:29:53;;;;;;;15.48;5.03;;;;;;;;;;4977493;28;20420;-76
2022/10/16 01:32:31;;;;;;;11.18;3.65;;;;;;;;;;4977343;28;20019;-77
2022/10/16 01:35:04;;;;;;;9.02;3.55;;;;;;;;;;4977370;28;20027;-76
2022/10/16 01:37:33;;;;;;;12.57;4.30;;;;;;;;;;4977095;28;20107;-75
2022/10/16 01:40:01;;;;;;;8.00;3.53;;;;;;;;;;4976981;28;20077;-76
2022/10/16 01:42:31;;;;;;;9.70;3.78;;;;;;;;;;4976770;28;20499;-75
2022/10/16 01:44:58;;;;;;;7.38;3.58;;;;;;;;;;4975436;28;20034;-76
2022/10/16 01:47:25;;;;;;;9.73;3.72;;;;;;;;;;4976931;28;20089;-75
2022/10/16 01:49:51;;;;;;;9.48;3.00;;;;;;;;;;4973873;28;20031;-75
2022/10/16 01:52:19;;;;;;;9.73;3.28;;;;;;;;;;4974866;28;20066;-75
2022/10/16 01:54:47;;;;;;;12.38;3.08;;;;;;;;;;4976378;28;20392;-76
2022/10/16 01:57:13;;;;;;;12.73;3.15;;;;;;;;;;4976152;28;20026;-75
2022/10/16 01:59:42;;;;;;;12.13;2.97;;;;;;;;;;4976133;28;20031;-76
2022/10/16 02:02:09;;;;;;;7.28;2.80;;;;;;;;;;4976318;28;20030;-76
2022/10/16 02:04:41;;;;;;;16.80;3.47;;;;;;;;;;4958732;28;20042;-75
2022/10/16 02:07:07;;;;;;;14.25;3.67;;;;;;;;;;4975920;28;20110;-75
2022/10/16 02:09:33;;;;;;;8.32;2.70;;;;;;;;;;4976060;28;20106;-75
2022/10/16 02:12:02;;;;;;;8.13;3.00;;;;;;;;;;4976302;28;20038;-76
2022/10/16 02:14:28;;;;;;;13.32;2.88;;;;;;;;;;4976190;28;20067;-75
2022/10/16 02:16:54;;;;;;;11.43;3.17;;;;;;;;;;4975703;28;20062;-76
2022/10/16 02:19:21;;;;;;;11.52;2.53;;;;;;;;;;4978264;28;20038;-76
2022/10/16 02:21:52;;;;;;;10.63;3.15;;;;;;;;;;4979473;28;20034;-75
2022/10/16 02:24:38;;;;;;;8.30;2.40;;;;;;;;;;4958441;28;20035;-76
2022/10/16 02:27:08;;;;;;;11.80;3.08;;;;;;;;;;4975688;28;20061;-75
2022/10/16 02:29:37;;;;;;;20.10;3.70;;;;;;;;;;4976185;28;20023;-76
2022/10/16 02:32:04;;;;;;;10.15;2.97;;;;;;;;;;4975773;28;20019;-76
2022/10/16 02:34:32;;;;;;;11.00;2.78;;;;;;;;;;4976123;28;20054;-75
2022/10/16 02:36:59;;;;;;;14.98;2.70;;;;;;;;;;4974643;28;20059;-75
2022/10/16 02:39:26;;;;;;;9.35;2.95;;;;;;;;;;4975995;28;20365;-75
2022/10/16 02:41:52;;;;;;;9.55;2.50;;;;;;;;;;4976102;28;20026;-75
2022/10/16 02:44:17;;;;;;;5.97;2.50;;;;;;;;;;4958168;28;20027;-77
2022/10/16 02:46:44;;;;;;;12.38;2.70;;;;;;;;;;4975654;28;20035;-75
2022/10/16 02:49:10;;;;;;;10.48;2.92;;;;;;;;;;4975898;28;20056;-76
2022/10/16 02:51:35;;;;;;;10.95;2.58;;;;;;;;;;4977495;28;20423;-78
2022/10/16 02:54:02;;;;;;;7.50;2.33;;;;;;;;;;4975972;28;20030;-76
2022/10/16 02:56:29;;;;;;;11.63;2.97;;;;;;;;;;4975906;28;20042;-77
2022/10/16 02:58:55;;;;;;;8.90;2.50;;;;;;;;;;4976321;28;20173;-74
2022/10/16 03:01:21;;;;;;;7.95;2.15;;;;;;;;;;4976080;28;20070;-74
2022/10/16 03:03:47;;;;;;;8.77;2.50;;;;;;;;;;4975690;28;20096;-74
2022/10/16 03:06:13;;;;;;;10.20;2.88;;;;;;;;;;4958181;28;20031;-75
2022/10/16 03:08:39;;;;;;;11.15;2.25;;;;;;;;;;4958792;28;20130;-75
2022/10/16 03:11:05;;;;;;;9.38;2.40;;;;;;;;;;4977543;28;20022;-74
2022/10/16 03:13:31;;;;;;;10.43;2.80;;;;;;;;;;4976929;28;20031;-74
2022/10/16 03:15:57;;;;;;;8.63;2.58;;;;;;;;;;4976829;28;20099;-74
2022/10/16 03:18:23;;;;;;;9.20;2.55;;;;;;;;;;4975699;28;20077;-75
2022/10/16 03:20:49;;;;;;;11.32;3.03;;;;;;;;;;4975284;28;20038;-75
2022/10/16 03:23:15;;;;;;;11.20;2.53;;;;;;;;;;4975022;28;20031;-75
2022/10/16 03:25:41;;;;;;;11.10;2.60;;;;;;;;;;4957644;28;20034;-74
2022/10/16 03:28:07;;;;;;;12.25;2.53;;;;;;;;;;4975884;28;20031;-74
2022/10/16 03:30:33;;;;;;;10.60;2.25;;;;;;;;;;4975855;28;20098;-74
2022/10/16 03:32:59;;;;;;;6.00;2.20;;;;;;;;;;4974847;28;20499;-74
2022/10/16 03:35:25;;;;;;;6.30;1.95;;;;;;;;;;4957569;28;20027;-75
2022/10/16 03:37:52;;;;;;;6.93;2.15;;;;;;;;;;4974416;28;20041;-76
2022/10/16 03:40:17;;;;;;;18.05;2.30;;;;;;;;;;4974214;28;20373;-75
2022/10/16 03:42:44;;;;;;;9.90;2.67;;;;;;;;;;4974434;28;20048;-75
2022/10/16 03:45:10;;;;;;;11.13;2.20;;;;;;;;;;4974791;28;20111;-75
2022/10/16 03:47:36;;;;;;;5.25;2.38;;;;;;;;;;4984490;28;20033;-75
2022/10/16 03:50:02;;;;;;;8.30;2.53;;;;;;;;;;4990879;28;20026;-74
2022/10/16 03:52:28;;;;;;;10.95;2.55;;;;;;;;;;4981432;28;20383;-75
2022/10/16 03:54:54;;;;;;;11.70;2.22;;;;;;;;;;4975884;28;20102;-76
2022/10/16 03:57:20;;;;;;;5.15;2.10;;;;;;;;;;4975860;28;20436;-75
2022/10/16 03:59:46;;;;;;;14.50;2.40;;;;;;;;;;4982641;28;20031;-76
2022/10/16 04:02:12;;;;;;;10.07;2.40;;;;;;;;;;4966931;28;20031;-74
2022/10/16 04:04:38;;;;;;;7.95;2.60;;;;;;;;;;4982605;28;20487;-75
2022/10/16 04:07:04;;;;;;;9.07;2.33;;;;;;;;;;4981286;28;20027;-75
2022/10/16 04:09:30;;;;;;;9.90;2.53;;;;;;;;;;4964859;28;20023;-75
2022/10/16 04:11:56;;;;;;;7.03;1.83;;;;;;;;;;4964759;28;20034;-76
2022/10/16 04:14:22;;;;;;;11.65;2.92;;;;;;;;;;4975240;28;20065;-76
2022/10/16 04:16:48;;;;;;;11.70;2.05;;;;;;;;;;4974138;28;20039;-74
2022/10/16 04:19:14;;;;;;;8.23;2.38;;;;;;;;;;4975379;28;20034;-75
2022/10/16 04:21:40;;;;;;;18.70;2.15;;;;;;;;;;4974604;28;20034;-76
2022/10/16 04:24:06;;;;;;;16.90;2.55;;;;;;;;;;4974685;28;20038;-75
2022/10/16 04:26:32;;;;;;;7.95;2.30;;;;;;;;;;4974143;28;20042;-75
2022/10/16 04:28:58;;;;;;;5.28;2.17;;;;;;;;;;4974585;28;20082;-75
2022/10/16 04:31:24;;;;;;;7.85;1.90;;;;;;;;;;4974532;28;20019;-78
2022/10/16 04:33:50;;;;;;;11.95;2.40;;;;;;;;;;4983626;28;20027;-75
2022/10/16 04:36:16;;;;;;;8.73;2.58;;;;;;;;;;4996481;28;20011;-75
2022/10/16 04:38:42;;;;;;;7.20;2.47;;;;;;;;;;4989429;28;20441;-76
2022/10/16 04:41:08;;;;;;;9.90;2.88;;;;;;;;;;4974331;28;20031;-75
2022/10/16 04:43:34;;;;;;;16.75;2.90;;;;;;;;;;4974182;28;20042;-76
2022/10/16 04:46:00;;;;;;;11.75;2.60;;;;;;;;;;4973348;28;20121;-77
2022/10/16 04:48:26;;;;;;;7.22;2.47;;;;;;;;;;4974357;28;20019;-75
2022/10/16 04:50:52;;;;;;;10.20;2.20;;;;;;;;;;4974378;28;20023;-74
2022/10/16 04:53:18;;;;;;;10.48;2.88;;;;;;;;;;4974298;28;20018;-76
2022/10/16 04:55:44;;;;;;;14.43;2.38;;;;;;;;;;4973695;28;20041;-75
2022/10/16 04:58:10;;;;;;;6.95;2.15;;;;;;;;;;4973882;28;20023;-75
2022/10/16 05:00:36;;;;;;;10.30;2.65;;;;;;;;;;4975137;28;20031;-74
2022/10/16 05:03:05;;;;;;;11.15;2.75;;;;;;;;;;4977779;28;20062;-75
2022/10/16 05:05:31;;;;;;;6.68;2.47;;;;;;;;;;4977457;28;20031;-76
2022/10/16 05:07:57;;;;;;;9.80;3.03;;;;;;;;;;4977327;28;20372;-76
2022/10/16 05:10:23;;;;;;;9.73;4.10;;;;;;;;;;4977681;28;20384;-75
2022/10/16 05:12:51;;;;;;;8.63;3.30;;;;;;;;;;4978479;28;20110;-76
2022/10/16 05:15:16;;;;;;;9.48;3.50;;;;;;;;;;4978088;28;20029;-75
2022/10/16 05:17:42;;;;;;;8.95;2.85;;;;;;;;;;4960295;28;20476;-75
2022/10/16 05:20:08;;;;;;;11.13;3.88;;;;;;;;;;4981365;28;20063;-75
2022/10/16 05:22:34;;;;;;;15.23;3.92;;;;;;;;;;4962402;28;20077;-76
2022/10/16 05:25:00;;;;;;;15.63;3.63;;;;;;;;;;4980461;28;20058;-75
2022/10/16 05:27:26;;;;;;;9.10;3.90;;;;;;;;;;4991741;28;20062;-76
2022/10/16 05:29:52;;;;;;;10.07;4.00;;;;;;;;;;4976818;28;20413;-76
2022/10/16 05:32:18;;;;;;;12.32;3.47;;;;;;;;;;4978836;28;20026;-76
2022/10/16 05:34:45;;;;;;;12.38;4.10;;;;;;;;;;4981053;28;20031;-76
2022/10/16 05:37:11;;;;;;;11.27;3.67;;;;;;;;;;4958307;28;20051;-76
2022/10/16 05:39:38;;;;;;;10.85;3.50;;;;;;;;;;4975732;28;20481;-74
2022/10/16 05:42:04;;;;;;;10.65;3.80;;;;;;;;;;4976593;28;20026;-78
2022/10/16 05:44:30;;;;;;;15.77;4.00;;;;;;;;;;4976088;28;20030;-76
2022/10/16 05:46:56;;;;;;;10.23;4.15;;;;;;;;;;4977011;28;20030;-77
2022/10/16 05:49:22;;;;;;;12.18;4.47;;;;;;;;;;4976925;28;20106;-76
2022/10/16 05:51:48;;;;;;;16.20;4.15;;;;;;;;;;4976841;28;20027;-76
2022/10/16 05:54:14;;;;;;;10.63;4.07;;;;;;;;;;4976659;28;20042;-75
2022/10/16 05:56:40;;;;;;;13.75;4.40;;;;;;;;;;4976472;28;20447;-76
2022/10/16 05:59:06;;;;;;;11.57;4.30;;;;;;;;;;4976516;28;20027;-76
2022/10/16 06:01:32;;;;;;;12.60;4.63;;;;;;;;;;4959163;28;20034;-75
2022/10/16 06:03:58;;;;;;;12.88;4.35;;;;;;;;;;4977137;28;20026;-77
2022/10/16 06:06:25;;;;;;;13.63;4.18;;;;;;;;;;4976725;28;20113;-75
2022/10/16 06:08:52;;;;;;;18.25;4.68;;;;;;;;;;4976426;28;20026;-76
2022/10/16 06:11:19;;;;;;;13.27;4.13;;;;;;;;;;4976204;28;20023;-75
2022/10/16 06:13:45;;;;;;;11.13;4.38;;;;;;;;;;4976318;28;20082;-77
2022/10/16 06:16:12;;;;;;;14.88;4.47;;;;;;;;;;4958701;28;20062;-75
2022/10/16 06:18:38;;;;;;;13.40;4.85;;;;;;;;;;4976109;28;20022;-75
2022/10/16 06:21:08;;;;;;;13.32;4.10;;;;;;;;;;4977065;28;20107;-76
2022/10/16 06:23:34;;;;;;;14.63;4.25;;;;;;;;;;4976372;28;20031;-76
2022/10/16 06:26:10;;;;;;;20.92;4.60;;;;;;;;;;4978169;28;20101;-76
2022/10/16 06:28:36;;;;;;;13.38;4.40;;;;;;;;;;4978465;28;20031;-78
2022/10/16 06:31:03;;;;;;;15.80;3.80;;;;;;;;;;4979431;28;20404;-78
2022/10/16 06:33:29;;;;;;;14.85;4.13;;;;;;;;;;4960428;28;20131;-78
2022/10/16 06:36:00;;;;;;;20.05;4.88;;;;;;;;;;4976951;28;20044;-76
2022/10/16 06:38:26;;;;;;;10.85;3.88;;;;;;;;;;4978998;28;20015;-78
2022/10/16 06:40:54;;;;;;;12.40;4.22;;;;;;;;;;4977920;28;20049;-78
2022/10/16 06:43:19;;;;;;;12.85;4.10;;;;;;;;;;4959889;28;20030;-78
2022/10/16 06:45:53;;;;;;;8.90;3.63;;;;;;;;;;5006391;23;20045;-79
2022/10/16 06:48:19;;;;;;;13.07;4.10;;;;;;;;;;5042702;28;20048;-79
2022/10/16 06:50:45;;;;;;;14.40;4.15;;;;;;;;;;5037070;28;20053;-77
2022/10/16 06:53:10;;;;;;;17.80;4.35;;;;;;;;;;5034895;28;20363;-78
2022/10/16 06:55:36;;;;;;;9.40;4.25;;;;;;;;;;5031843;28;20028;-75
2022/10/16 06:58:02;;;;;;;13.32;4.00;;;;;;;;;;5033437;28;20033;-77
2022/10/16 07:00:28;;;;;;;11.07;4.13;;;;;;;;;;5032078;28;20124;-76
2022/10/16 07:02:54;;;;;;;13.07;4.28;;;;;;;;;;5033296;28;20048;-77
2022/10/16 07:05:20;;;;;;;12.35;4.85;;;;;;;;;;5033048;28;20029;-76
2022/10/16 07:07:46;;;;;;;14.40;4.53;;;;;;;;;;5032620;28;20034;-75
2022/10/16 07:10:12;;;;;;;12.57;4.22;;;;;;;;;;5032844;28;20029;-76
2022/10/16 07:12:38;;;;;;;18.98;4.50;;;;;;;;;;5032924;28;20382;-76
2022/10/16 07:15:04;;;;;;;13.07;4.40;;;;;;;;;;5033530;28;20478;-75
2022/10/16 07:17:30;;;;;;;10.77;5.03;;;;;;;;;;5031207;28;20474;-75
2022/10/16 07:19:56;;;;;;;16.50;5.53;;;;;;;;;;5032688;28;20052;-74
2022/10/16 07:22:22;;;;;;;16.10;4.57;;;;;;;;;;5033515;28;20079;-75
2022/10/16 07:24:48;;;;;;;11.63;4.82;;;;;;;;;;5036365;28;20109;-75
2022/10/16 07:27:15;;;;;;;15.50;5.25;;;;;;;;;;5035861;28;20401;-76
2022/10/16 07:29:41;;;;;;;15.38;4.95;;;;;;;;;;5036309;28;20017;-78
2022/10/16 07:32:07;;;;;;;18.77;5.22;;;;;;;;;;5038118;28;20026;-75
2022/10/16 07:34:33;;;;;;;20.33;4.80;;;;;;;;;;5038087;28;20044;-75
2022/10/16 07:36:59;;;;;;;13.52;4.32;;;;;;;;;;5031129;28;20040;-76
2022/10/16 07:39:25;;;;;;;11.38;4.07;;;;;;;;;;5033078;28;20061;-76
2022/10/16 07:41:51;;;;;;;15.27;5.55;;;;;;;;;;5033403;28;20116;-76
2022/10/16 07:44:17;;;;;;;12.02;4.50;;;;;;;;;;5033384;28;20040;-75
2022/10/16 07:46:43;;;;;;;10.48;4.93;;;;;;;;;;5034371;28;20025;-75
2022/10/16 07:49:09;;;;;;;10.50;5.13;;;;;;;;;;5042738;28;20462;-76
2022/10/16 07:51:35;;;;;;;15.25;4.50;;;;;;;;;;5038110;28;20022;-75
2022/10/16 07:54:01;;;;;;;12.73;4.75;;;;;;;;;;5036999;28;20024;-76
2022/10/16 07:56:27;;;;;;;14.52;4.90;;;;;;;;;;5035890;28;20040;-76
2022/10/16 07:58:53;;;;;;;13.50;5.10;;;;;;;;;;5036865;28;20034;-75
2022/10/16 08:01:19;;;;;;;13.50;4.72;;;;;;;;;;5034375;28;20083;-75
2022/10/16 08:03:46;;;;;;;9.50;4.70;;;;;;;;;;5037591;28;20438;-77
2022/10/16 08:06:12;;;;;;;11.20;4.68;;;;;;;;;;5039214;28;20033;-77
2022/10/16 08:08:39;;;;;;;14.88;5.03;;;;;;;;;;5034735;28;20035;-78
2022/10/16 08:11:05;;;;;;;10.20;4.63;;;;;;;;;;5032557;28;20108;-75
2022/10/16 08:13:31;;;;;;;12.32;5.43;;;;;;;;;;5031973;28;20022;-75
2022/10/16 08:15:57;;;;;;;11.82;4.68;;;;;;;;;;5031029;28;20041;-74
2022/10/16 08:18:23;;;;;;;14.32;4.57;;;;;;;;;;5031153;28;20407;-76
2022/10/16 08:20:55;;;;;;;10.45;4.50;;;;;;;;;;5031611;28;20073;-75
2022/10/16 08:23:21;;;;;;;13.02;4.70;;;;;;;;;;5029750;28;20543;-78
2022/10/16 08:25:47;;;;;;;6.85;4.13;;;;;;;;;;5029764;28;20087;-76
2022/10/16 08:28:13;;;;;;;13.20;5.10;;;;;;;;;;5029813;28;20029;-76
2022/10/16 08:30:39;;;;;;;10.52;3.50;;;;;;;;;;5033061;28;20033;-76
2022/10/16 08:33:06;;;;;;;10.30;3.67;;;;;;;;;;5036050;28;20021;-78
2022/10/16 08:35:32;;;;;;;10.88;3.40;;;;;;;;;;5032242;28;20675;-74
2022/10/16 08:37:58;;;;;;;11.15;3.70;;;;;;;;;;5034697;28;20553;-75
2022/10/16 08:40:30;;;;;;;13.65;6.90;;;;;;;;;;5034892;28;20108;-75
2022/10/16 08:43:16;;;;;;;11.13;3.35;;;;;;;;;;5033333;28;20085;-76
2022/10/16 08:46:00;;;;;;;10.48;3.63;;;;;;;;;;5034395;28;20111;-76
2022/10/16 08:48:45;;;;;;;10.88;3.53;;;;;;;;;;5034171;28;20037;-76
2022/10/16 08:51:11;;;;;;;;;;;;;;;;;;5035137;28;20037;-74
2022/10/16 08:53:41;;;;;;;7.57;2.95;;;;;;;;;;5034259;28;19992;-73
2022/10/16 08:56:07;;;;;;;9.02;3.42;;;;;;;;;;5033944;28;20091;-75
2022/10/16 08:58:33;;;;;;;8.45;2.90;;;;;;;;;;5032973;28;20049;-74
2022/10/16 09:01:00;;;;;;;7.88;3.20;;;;;;;;;;5034426;28;20057;-75
2022/10/16 09:03:45;;;;;;;6.80;3.05;;;;;;;;;;5034347;28;20026;-74
2022/10/16 09:06:11;;;;;;;9.10;2.90;;;;;;;;;;5033796;28;20217;-73
2022/10/16 09:08:37;;;;;;;9.23;2.60;;;;;;;;;;5034248;28;20037;-73
2022/10/16 09:11:14;;;;;;;6.97;2.90;;;;;;;;;;5034513;28;20026;-75
2022/10/16 09:13:58;;;;;;;6.45;2.55;;;;;;;;;;5034209;28;20045;-74
2022/10/16 09:16:26;;;;;;;9.43;2.75;;;;;;;;;;5034147;28;20159;-76
2022/10/16 09:18:56;;;;;;;9.02;2.72;;;;;;;;;;5034003;28;20033;-76
2022/10/16 09:21:25;;;;;;;8.98;2.58;;;;;;;;;;5034968;28;20040;-76
2022/10/16 09:23:51;;;;;;;7.75;2.80;;;;;;;;;;5035778;28;20112;-77
2022/10/16 09:26:19;;;;;;;6.75;2.20;;;;;;;;;;5033422;28;20125;-75
2022/10/16 09:28:45;;;;;;;12.52;2.78;;;;;;;;;;5033881;28;20041;-76
2022/10/16 09:31:19;;;;;;;12.13;2.17;;;;;;;;;;5033676;28;20030;-77
2022/10/16 09:33:48;;;;;;;5.88;1.92;;;;;;;;;;5034903;28;20112;-76
2022/10/16 09:36:14;;;;;;;6.95;2.40;;;;;;;;;;5033414;28;20057;-79
2022/10/16 09:38:40;;;;;;;13.43;2.33;;;;;;;;;;5033222;28;20024;-76
2022/10/16 09:41:20;;;;;;;8.38;2.40;;;;;;;;;;5034058;28;20029;-78
2022/10/16 09:43:46;;;;;;;7.10;2.05;;;;;;;;;;5033557;28;20017;-76
2022/10/16 09:46:30;;;;;;;7.20;2.00;;;;;;;;;;5032651;28;20044;-76
2022/10/16 09:48:57;;;;;;;9.00;2.10;;;;;;;;;;5034210;28;20101;-76
2022/10/16 09:51:25;;;;;;;9.40;2.20;;;;;;;;;;5038281;28;20026;-76
2022/10/16 09:53:55;;;;;;;9.63;2.70;;;;;;;;;;5037236;28;20483;-77
2022/10/16 09:56:23;;;;;;;8.98;2.47;;;;;;;;;;5017296;28;20036;-80
2022/10/16 09:58:53;;;;;;;11.10;2.60;;;;;;;;;;5033984;28;20474;-80
2022/10/16 10:01:19;;;;;;;10.75;2.10;;;;;;;;;;5033367;28;20050;-78
2022/10/16 10:03:46;;;;;;;7.85;1.83;;;;;;;;;;5040681;28;20017;-77
2022/10/16 10:06:18;;;;;;;6.20;1.83;;;;;;;;;;5045109;28;20026;-76
2022/10/16 10:08:58;;;;;;;9.07;2.05;;;;;;;;;;5036211;28;20104;-76
2022/10/16 10:11:43;;;;;;;6.10;1.90;;;;;;;;;;5038597;28;20032;-77
2022/10/16 10:14:21;;;;;;;11.25;1.55;;;;;;;;;;5038781;28;20025;-76
2022/10/16 10:16:47;;;;;;;9.25;2.30;;;;;;;;;;5055231;28;20022;-77
2022/10/16 10:19:23;;;;;;;8.35;1.70;;;;;;;;;;5033396;28;20029;-78
2022/10/16 10:21:51;;;;;;;10.32;2.13;;;;;;;;;;5039678;28;20034;-77
2022/10/16 10:24:18;;;;;;;13.93;2.00;;;;;;;;;;5027620;28;20026;-76
2022/10/16 10:26:49;;;;;;;9.18;1.70;;;;;;;;;;5038688;28;20036;-77
2022/10/16 10:29:37;;;;;;;6.85;1.73;;;;;;;;;;5036045;28;20021;-76
2022/10/16 10:32:08;;;;;;;6.07;1.70;;;;;;;;;;5031226;28;20022;-77
2022/10/16 10:34:43;;;;;;;8.02;2.00;;;;;;;;;;5032726;28;20481;-78
2022/10/16 10:37:28;;;;;;;6.75;1.67;;;;;;;;;;5031523;28;20086;-75
2022/10/16 10:40:23;;;;;;;6.72;1.63;;;;;;;;;;5036461;28;20021;-80
2022/10/16 10:42:57;;;;;;;8.48;1.80;;;;;;;;;;5020415;28;20098;-75
2022/10/16 10:45:28;;;;;;;5.68;1.90;;;;;;;;;;5034627;28;20390;-80
2022/10/16 10:48:13;;;;;;;10.07;2.00;;;;;;;;;;5034481;28;20021;-75
2022/10/16 10:50:44;;;;;;;17.15;1.92;;;;;;;;;;5015368;28;20074;-76
2022/10/16 10:53:10;;;;;;;13.93;2.22;;;;;;;;;;5034993;28;20021;-77
2022/10/16 10:55:43;;;;;;;10.60;2.20;;;;;;;;;;5039216;28;20020;-80
2022/10/16 10:58:18;;;;;;;5.45;1.58;;;;;;;;;;5053110;28;20017;-76
2022/10/16 11:00:47;;;;;;;5.78;1.80;;;;;;;;;;5040730;28;20021;-79
2022/10/16 11:03:13;;;;;;;8.82;1.85;;;;;;;;;;5058328;28;20018;-79
2022/10/16 11:05:47;;;;;;;9.98;1.80;;;;;;;;;;5056955;28;20096;-82
2022/10/16 11:08:13;;;;;;;;;;;;;;;;;;5050910;28;20041;-74
2022/10/16 11:10:57;;;;;;;7.32;1.90;;;;;;;;;;5033206;28;19951;-80
2022/10/16 11:13:30;;;;;;;7.88;1.98;;;;;;;;;;5013836;28;20017;-77
2022/10/16 11:15:58;;;;;;;6.13;1.52;;;;;;;;;;5013035;28;20034;-75
2022/10/16 11:18:31;;;;;;;8.18;1.40;;;;;;;;;;5033539;28;20438;-77
2022/10/16 11:21:00;;;;;;;5.72;1.40;;;;;;;;;;5033384;28;20104;-79
2022/10/16 11:23:31;;;;;;;11.20;1.88;;;;;;;;;;5015850;28;20116;-77
2022/10/16 11:26:00;;;;;;;6.72;1.70;;;;;;;;;;5033421;28;20033;-76
2022/10/16 11:28:43;;;;;;;10.43;1.50;;;;;;;;;;5034418;28;20044;-76
2022/10/16 11:31:13;;;;;;;8.93;1.67;;;;;;;;;;5032696;28;20172;-78
2022/10/16 11:33:58;;;;;;;6.05;1.75;;;;;;;;;;5034635;28;20025;-76
2022/10/16 11:36:23;;;;;;;;;;;;;;;;;;5030342;28;20057;-77
2022/10/16 11:39:00;;;;;;;6.88;1.70;;;;;;;;;;5015043;28;19974;-78
2022/10/16 11:41:38;;;;;;;6.05;1.55;;;;;;;;;;5032439;28;20013;-74
2022/10/16 11:44:22;;;;;;;6.00;1.40;;;;;;;;;;5031215;28;20427;-75
2022/10/16 11:46:58;;;;;;;4.65;1.27;;;;;;;;;;5014804;28;20029;-77
2022/10/16 11:49:26;;;;;;;7.15;1.40;;;;;;;;;;5028932;28;20125;-75
2022/10/16 11:52:07;;;;;;;10.45;1.60;;;;;;;;;;5032109;28;20585;-78
2022/10/16 11:54:36;;;;;;;6.22;1.77;;;;;;;;;;5015296;28;20021;-77
2022/10/16 11:57:07;;;;;;;6.15;1.50;;;;;;;;;;5034489;28;20243;-78
2022/10/16 11:59:42;;;;;;;11.35;1.65;;;;;;;;;;5034068;28;20029;-76
2022/10/16 12:02:27;;;;;;;9.88;1.60;;;;;;;;;;5034316;28;20414;-78
2022/10/16 12:05:02;;;;;;;7.65;1.45;;;;;;;;;;5032288;28;20081;-75
2022/10/16 12:07:32;;;;;;;6.75;1.70;;;;;;;;;;5033191;28;20099;-78
2022/10/16 12:10:00;;;;;;;6.65;1.30;;;;;;;;;;5034714;28;20447;-77
2022/10/16 12:12:35;;;;;;;8.93;1.85;;;;;;;;;;5036065;28;20014;-75
2022/10/16 12:15:02;;;;;;;9.48;1.65;;;;;;;;;;5019914;28;20021;-78
2022/10/16 12:17:35;;;;;;;5.47;1.50;;;;;;;;;;5037736;28;20033;-77
2022/10/16 12:20:22;;;;;;;9.55;1.52;;;;;;;;;;5036040;28;20029;-76
2022/10/16 12:22:56;;;;;;;6.88;1.27;;;;;;;;;;5022606;28;20064;-75
2022/10/16 12:25:23;;;;;;;9.68;1.73;;;;;;;;;;5018230;28;20022;-75
2022/10/16 12:27:56;;;;;;;7.00;1.85;;;;;;;;;;5035739;28;20041;-75
2022/10/16 12:30:24;;;;;;;9.68;1.85;;;;;;;;;;5036222;28;20029;-76
2022/10/16 12:32:58;;;;;;;5.68;1.60;;;;;;;;;;5036014;28;20022;-77
2022/10/16 12:35:29;;;;;;;7.70;1.80;;;;;;;;;;5036301;28;20394;-76
2022/10/16 12:38:05;;;;;;;9.25;1.75;;;;;;;;;;5035702;28;20522;-77
2022/10/16 12:40:33;;;;;;;7.85;1.88;;;;;;;;;;5036045;28;20028;-77
2022/10/16 12:42:59;;;;;;;12.13;1.83;;;;;;;;;;5035701;28;20068;-77
2022/10/16 12:45:31;;;;;;;13.38;2.25;;;;;;;;;;5018030;28;20175;-76
2022/10/16 12:47:57;;;;;;;11.93;1.40;;;;;;;;;;5037684;28;20032;-76
2022/10/16 12:50:24;;;;;;;6.90;1.65;;;;;;;;;;5040753;28;20331;-76
2022/10/16 12:52:50;;;;;;;9.48;1.52;;;;;;;;;;5038379;28;20021;-77
2022/10/16 12:55:17;;;;;;;10.98;1.83;;;;;;;;;;5037613;28;20030;-76
2022/10/16 12:57:43;;;;;;;6.05;1.65;;;;;;;;;;5037578;28;20463;-76
2022/10/16 13:00:18;;;;;;;10.40;2.05;;;;;;;;;;5035575;28;20033;-78
2022/10/16 13:03:11;;;;;;;13.88;1.90;;;;;;;;;;5035053;28;20025;-74
2022/10/16 13:05:43;;;;;;;7.45;1.80;;;;;;;;;;5032433;28;20064;-75
2022/10/16 13:08:25;;;;;;;8.20;2.00;;;;;;;;;;5036479;28;20072;-74
2022/10/16 13:10:57;;;;;;;7.25;1.92;;;;;;;;;;5042241;28;20083;-77
2022/10/16 13:13:45;;;;;;;6.45;1.67;;;;;;;;;;5040303;28;20457;-78
2022/10/16 13:16:22;;;;;;;12.40;1.98;;;;;;;;;;5041792;28;20025;-76
2022/10/16 13:19:04;;;;;;;12.95;2.00;;;;;;;;;;5036539;28;20033;-75
2022/10/16 13:21:33;;;;;;;7.22;1.85;;;;;;;;;;5034538;28;20021;-74
2022/10/16 13:24:17;;;;;;;9.65;2.00;;;;;;;;;;5035004;28;20029;-74
2022/10/16 13:26:43;;;;;;;10.20;1.83;;;;;;;;;;5035200;28;20049;-75
2022/10/16 13:29:09;;;;;;;9.43;2.15;;;;;;;;;;5043002;28;20025;-74
2022/10/16 13:31:38;;;;;;;9.40;2.35;;;;;;;;;;5022019;28;20030;-76
2022/10/16 13:34:06;;;;;;;11.07;2.00;;;;;;;;;;5038925;28;20026;-77
2022/10/16 13:36:36;;;;;;;8.07;2.03;;;;;;;;;;5038068;28;20105;-75
2022/10/16 13:39:05;;;;;;;9.70;1.60;;;;;;;;;;5020949;28;20040;-76
2022/10/16 13:41:31;;;;;;;7.40;2.03;;;;;;;;;;5021527;28;20103;-75
2022/10/16 13:43:57;;;;;;;8.68;1.80;;;;;;;;;;5038781;28;20512;-76
2022/10/16 13:46:24;;;;;;;11.05;1.98;;;;;;;;;;5038186;28;20040;-75
2022/10/16 13:49:00;;;;;;;9.20;2.00;;;;;;;;;;5041120;28;20021;-74
2022/10/16 13:51:26;;;;;;;10.27;2.10;;;;;;;;;;5020159;28;20117;-76
2022/10/16 13:53:52;;;;;;;9.40;2.30;;;;;;;;;;5034343;28;20042;-77
2022/10/16 13:56:21;;;;;;;8.85;1.83;;;;;;;;;;5034162;28;20652;-74
2022/10/16 13:58:47;;;;;;;11.15;1.70;;;;;;;;;;5017075;28;20021;-78
2022/10/16 14:01:18;;;;;;;8.85;2.50;;;;;;;;;;5035564;28;20034;-78
2022/10/16 14:03:44;;;;;;;10.38;1.95;;;;;;;;;;5035073;28;20021;-76
2022/10/16 14:06:16;;;;;;;7.05;1.77;;;;;;;;;;5034696;28;20021;-75
2022/10/16 14:08:50;;;;;;;8.60;1.63;;;;;;;;;;5037378;28;20017;-74
2022/10/16 14:11:22;;;;;;;7.13;1.73;;;;;;;;;;5042371;28;20060;-76
2022/10/16 14:13:48;;;;;;;10.57;2.75;;;;;;;;;;5042286;28;20029;-76
2022/10/16 14:16:33;;;;;;;8.32;2.15;;;;;;;;;;5042131;28;20097;-76
2022/10/16 14:19:06;;;;;;;8.95;2.15;;;;;;;;;;5046996;28;20029;-76
2022/10/16 14:21:32;;;;;;;11.98;2.47;;;;;;;;;;5038475;28;20025;-76
2022/10/16 14:23:58;;;;;;;5.88;2.05;;;;;;;;;;5052600;28;20104;-73
2022/10/16 14:26:26;;;;;;;10.82;1.65;;;;;;;;;;5049986;28;20471;-75
2022/10/16 14:29:10;;;;;;;7.90;2.17;;;;;;;;;;5044446;28;20037;-74
2022/10/16 14:31:37;;;;;;;8.55;2.22;;;;;;;;;;5048165;28;20022;-74
2022/10/16 14:34:04;;;;;;;10.68;2.20;;;;;;;;;;5026058;28;20034;-74
2022/10/16 14:36:30;;;;;;;10.65;2.67;;;;;;;;;;5048622;28;20079;-73
2022/10/16 14:39:01;;;;;;;6.57;2.45;;;;;;;;;;5037234;28;20057;-74
2022/10/16 14:41:28;;;;;;;10.90;2.28;;;;;;;;;;5043817;28;20029;-75
2022/10/16 14:43:55;;;;;;;7.60;2.50;;;;;;;;;;5047014;28;20030;-73
2022/10/16 14:46:25;;;;;;;5.85;1.95;;;;;;;;;;5037704;28;20037;-76
2022/10/16 14:48:54;;;;;;;8.48;2.13;;;;;;;;;;5038435;28;20021;-75